Time;durP1;ratioP1;P1;durP2;ratioP2;P2;SDS_P1;SDS_P2;PMS_P1;PMS_P2;Temp;Humidity;BMP_temperature;BMP_pressure;BME280_temperature;BME280_humidity;BME280_pressure;Samples;Min_cycle;Max_cycle;Signal;HPM_P1;HPM_P2
2021/06/09 00:00:39;;;;;;;17.70;16.00;;;25.80;56.50;;;;;;5030206;28;20443;-48
2021/06/09 00:03:05;;;;;;;19.23;16.20;;;25.80;56.50;;;;;;5030258;28;20225;-48
2021/06/09 00:05:31;;;;;;;15.40;14.20;;;25.80;56.50;;;;;;5024196;28;20185;-49
2021/06/09 00:07:56;;;;;;;14.97;13.70;;;25.80;56.50;;;;;;5028271;28;20223;-48
2021/06/09 00:10:22;;;;;;;15.70;14.30;;;25.70;56.50;;;;;;5026014;28;20248;-49
2021/06/09 00:12:48;;;;;;;17.17;14.47;;;25.80;56.50;;;;;;5030289;28;20189;-48
2021/06/09 00:15:15;;;;;;;15.90;14.70;;;25.80;56.40;;;;;;5024469;28;20224;-49
2021/06/09 00:17:40;;;;;;;15.83;14.43;;;25.80;56.30;;;;;;5030888;28;20566;-48
2021/06/09 00:20:10;;;;;;;18.57;16.77;;;25.90;56.30;;;;;;5024637;28;20510;-51
2021/06/09 00:22:36;;;;;;;18.83;16.03;;;25.80;56.60;;;;;;5025153;28;20479;-48
2021/06/09 00:25:06;;;;;;;14.50;13.10;;;25.80;56.60;;;;;;5027795;28;20471;-48
2021/06/09 00:27:32;;;;;;;14.00;12.80;;;25.70;56.80;;;;;;5029165;28;20197;-47
2021/06/09 00:29:58;;;;;;;16.40;15.00;;;25.60;57.00;;;;;;5024703;28;21016;-49
2021/06/09 00:32:23;;;;;;;15.20;14.00;;;25.60;57.00;;;;;;5027881;28;20260;-48
2021/06/09 00:34:49;;;;;;;16.53;15.20;;;25.70;57.00;;;;;;5027282;28;20653;-49
2021/06/09 00:37:14;;;;;;;21.27;19.10;;;25.60;56.90;;;;;;5028751;28;20873;-47
2021/06/09 00:39:42;;;;;;;16.57;15.17;;;25.70;56.90;;;;;;5021441;28;20285;-48
2021/06/09 00:42:07;;;;;;;17.23;15.70;;;25.50;57.40;;;;;;5019917;28;20205;-48
2021/06/09 00:44:33;;;;;;;16.17;14.87;;;25.50;57.30;;;;;;5025644;28;20544;-50
2021/06/09 00:46:59;;;;;;;15.97;14.57;;;25.50;57.30;;;;;;5029217;28;20202;-49
2021/06/09 00:49:24;;;;;;;16.50;15.00;;;25.60;57.10;;;;;;5013153;28;20190;-52
2021/06/09 00:51:50;;;;;;;18.90;17.20;;;25.60;57.00;;;;;;5023313;28;20572;-51
2021/06/09 00:54:15;;;;;;;17.33;15.73;;;25.60;56.90;;;;;;5013091;28;20247;-51
2021/06/09 00:56:42;;;;;;;16.37;14.93;;;25.60;56.90;;;;;;5030216;28;20197;-50
2021/06/09 00:59:07;;;;;;;15.63;14.43;;;25.50;57.00;;;;;;5024791;28;20273;-51
2021/06/09 01:01:33;;;;;;;15.57;14.20;;;25.60;57.10;;;;;;5027925;28;20452;-53
2021/06/09 01:03:59;;;;;;;14.47;13.27;;;25.60;56.90;;;;;;5026339;28;20225;-52
2021/06/09 01:06:25;;;;;;;16.40;15.00;;;25.60;56.70;;;;;;5028443;28;20456;-50
2021/06/09 01:08:52;;;;;;;16.00;14.60;;;25.60;56.70;;;;;;5026273;28;20454;-50
2021/06/09 01:11:26;;;;;;;14.60;13.40;;;25.60;56.60;;;;;;5029231;28;20363;-48
2021/06/09 01:13:53;;;;;;;13.83;12.73;;;25.60;56.70;;;;;;5024821;28;20451;-51
2021/06/09 01:16:20;;;;;;;15.50;14.20;;;25.60;56.80;;;;;;5016088;28;20444;-52
2021/06/09 01:18:46;;;;;;;16.53;15.10;;;25.60;56.70;;;;;;5027782;28;20610;-50
2021/06/09 01:21:11;;;;;;;16.50;15.00;;;25.60;56.60;;;;;;5025209;28;20440;-50
2021/06/09 01:23:38;;;;;;;14.73;13.57;;;25.60;56.50;;;;;;5022104;28;20483;-50
2021/06/09 01:26:05;;;;;;;14.83;13.53;;;25.60;56.70;;;;;;5023810;28;20185;-49
2021/06/09 01:28:31;;;;;;;16.20;14.70;;;25.60;56.70;;;;;;5023148;28;20440;-52
2021/06/09 01:30:57;;;;;;;16.30;14.80;;;25.60;56.80;;;;;;5022076;28;20466;-51
2021/06/09 01:33:23;;;;;;;13.63;12.53;;;25.60;56.90;;;;;;5028580;28;20189;-49
2021/06/09 01:35:51;;;;;;;16.13;14.63;;;25.60;56.80;;;;;;5022608;28;20519;-50
2021/06/09 01:38:17;;;;;;;14.83;13.63;;;25.60;56.90;;;;;;5020335;28;20458;-48
2021/06/09 01:40:43;;;;;;;22.90;20.50;;;25.60;56.80;;;;;;5023792;28;20436;-47
2021/06/09 01:43:09;;;;;;;23.40;21.23;;;25.70;56.70;;;;;;5026082;28;20228;-52
2021/06/09 01:45:37;;;;;;;20.03;18.00;;;25.80;56.50;;;;;;5022667;28;20201;-52
2021/06/09 01:48:04;;;;;;;19.10;17.30;;;25.80;56.70;;;;;;5025937;28;20440;-52
2021/06/09 01:50:30;;;;;;;21.00;18.80;;;25.60;57.00;;;;;;5023874;28;20447;-47
2021/06/09 01:52:57;;;;;;;28.57;20.87;;;25.50;57.50;;;;;;5029979;28;20582;-48
2021/06/09 01:55:25;;;;;;;18.80;17.00;;;25.40;57.40;;;;;;5025764;28;20439;-50
2021/06/09 01:57:51;;;;;;;20.07;18.23;;;24.90;58.60;;;;;;5025424;28;20954;-53
2021/06/09 02:00:26;;;;;;;25.27;22.80;;;24.90;58.80;;;;;;5026571;28;20939;-49
2021/06/09 02:02:59;;;;;;;22.30;20.10;;;25.00;58.70;;;;;;5024011;28;20475;-51
2021/06/09 02:05:30;;;;;;;22.90;20.50;;;25.00;58.60;;;;;;5024934;28;20469;-49
2021/06/09 02:07:59;;;;;;;20.53;18.53;;;25.00;58.60;;;;;;5025363;28;20973;-50
2021/06/09 02:10:26;;;;;;;22.37;20.27;;;24.90;58.40;;;;;;5023055;28;20472;-51
2021/06/09 02:12:55;;;;;;;19.13;17.33;;;24.60;58.60;;;;;;5029240;28;20440;-48
2021/06/09 02:15:22;;;;;;;21.87;18.90;;;24.50;58.80;;;;;;5023097;28;20447;-48
2021/06/09 02:17:57;;;;;;;18.97;17.17;;;24.50;59.10;;;;;;5028441;28;20447;-50
2021/06/09 02:20:27;;;;;;;22.40;20.10;;;24.40;59.30;;;;;;5027595;28;20478;-47
2021/06/09 02:22:56;;;;;;;18.80;17.00;;;24.40;59.20;;;;;;5025677;28;20486;-48
2021/06/09 02:25:23;;;;;;;19.60;17.67;;;24.30;59.10;;;;;;5023788;28;22281;-49
2021/06/09 02:27:48;;;;;;;19.40;17.67;;;24.30;58.80;;;;;;5026844;28;20935;-51
2021/06/09 02:30:16;;;;;;;21.97;19.97;;;24.20;58.80;;;;;;5026403;28;20436;-52
2021/06/09 02:32:44;;;;;;;22.70;20.60;;;24.20;58.60;;;;;;5026398;28;20238;-53
2021/06/09 02:35:18;;;;;;;22.40;20.13;;;24.30;58.70;;;;;;5029022;28;20432;-52
2021/06/09 02:37:49;;;;;;;17.43;15.93;;;24.30;58.70;;;;;;5023695;28;20527;-52
2021/06/09 02:40:15;;;;;;;19.57;17.77;;;24.30;58.80;;;;;;5023789;28;20966;-50
2021/06/09 02:42:41;;;;;;;22.40;20.10;;;24.30;58.90;;;;;;5027641;28;20479;-53
2021/06/09 02:45:12;;;;;;;21.20;19.10;;;24.30;59.10;;;;;;5026218;28;20459;-52
2021/06/09 02:47:40;;;;;;;27.00;24.10;;;24.30;59.10;;;;;;5023788;28;20197;-49
2021/06/09 02:50:07;;;;;;;21.17;18.97;;;24.20;59.40;;;;;;5020758;28;20505;-51
2021/06/09 02:52:42;;;;;;;18.97;17.00;;;24.30;59.50;;;;;;5024847;28;20500;-51
2021/06/09 02:55:47;;;;;;;19.20;17.20;;;24.30;59.40;;;;;;5012352;28;20437;-52
2021/06/09 02:58:32;;;;;;;25.47;22.93;;;24.40;59.40;;;;;;5001955;28;20879;-51
2021/06/09 03:01:03;;;;;;;19.63;17.73;;;24.40;59.40;;;;;;5019025;28;20452;-52
2021/06/09 03:03:35;;;;;;;16.97;15.27;;;24.40;59.20;;;;;;5025205;28;20483;-51
2021/06/09 03:06:10;;;;;;;17.23;15.60;;;24.50;59.30;;;;;;5026923;28;20436;-51
2021/06/09 03:08:42;;;;;;;21.27;19.07;;;24.50;59.20;;;;;;5025370;28;20446;-51
2021/06/09 03:11:23;;;;;;;21.07;18.73;;;24.50;59.00;;;;;;5023199;28;20486;-52
2021/06/09 03:15:09;;;;;;;16.90;15.30;;;24.50;58.80;;;;;;5031951;28;20451;-51
2021/06/09 03:17:09;;;;;;;21.37;19.37;;;24.50;59.20;;;;;;5032928;28;20459;-51
2021/06/09 03:19:56;;;;;;;23.47;21.17;;;24.50;59.10;;;;;;5020354;28;20450;-52
2021/06/09 03:22:31;;;;;;;18.47;16.67;;;24.50;59.00;;;;;;5024932;28;20582;-51
2021/06/09 03:24:58;;;;;;;18.17;16.37;;;24.50;59.00;;;;;;5028292;28;20447;-51
2021/06/09 03:27:31;;;;;;;25.87;23.00;;;24.50;59.10;;;;;;5027978;28;20440;-52
2021/06/09 03:30:03;;;;;;;22.97;20.73;;;24.50;59.00;;;;;;5026287;28;20462;-52
2021/06/09 03:32:51;;;;;;;25.53;22.97;;;24.50;59.10;;;;;;5027483;28;20797;-52
2021/06/09 03:35:31;;;;;;;23.87;21.33;;;24.30;59.10;;;;;;5028788;28;20443;-52
2021/06/09 03:37:59;;;;;;;19.53;17.63;;;24.30;59.40;;;;;;5021117;28;20800;-52
2021/06/09 03:40:36;;;;;;;24.03;21.63;;;24.30;59.50;;;;;;5019285;28;21143;-53
2021/06/09 03:43:05;;;;;;;16.90;15.33;;;24.30;59.50;;;;;;5030637;28;20966;-51
2021/06/09 03:45:35;;;;;;;32.50;24.20;;;24.30;59.40;;;;;;5023211;28;20477;-49
2021/06/09 03:48:02;;;;;;;21.70;19.60;;;24.30;59.40;;;;;;5028868;28;20455;-51
2021/06/09 03:50:29;;;;;;;21.93;19.83;;;24.30;59.40;;;;;;5022716;28;20932;-51
2021/06/09 03:53:02;;;;;;;23.60;21.30;;;24.30;59.50;;;;;;5028099;28;20466;-49
2021/06/09 03:55:29;;;;;;;19.30;17.40;;;24.30;59.50;;;;;;5024555;28;20451;-48
2021/06/09 03:57:58;;;;;;;19.70;17.70;;;24.30;59.50;;;;;;5027951;28;20784;-52
2021/06/09 04:00:25;;;;;;;23.80;21.47;;;24.10;59.80;;;;;;5028555;28;20510;-51
2021/06/09 04:02:52;;;;;;;26.67;23.97;;;24.10;60.00;;;;;;5024485;28;20873;-48
2021/06/09 04:05:21;;;;;;;17.33;15.73;;;24.00;60.00;;;;;;5031215;28;20524;-52
2021/06/09 04:07:47;;;;;;;23.53;21.13;;;24.00;60.30;;;;;;5018131;28;20444;-52
2021/06/09 04:10:14;;;;;;;17.50;15.67;;;24.00;60.10;;;;;;5029498;28;20522;-49
2021/06/09 04:12:40;;;;;;;20.03;17.90;;;24.10;60.00;;;;;;5020952;28;20451;-52
2021/06/09 04:15:10;;;;;;;21.47;18.87;;;24.10;59.70;;;;;;5023712;28;20494;-51
2021/06/09 04:17:37;;;;;;;20.73;18.63;;;24.20;59.60;;;;;;5030989;28;20462;-48
2021/06/09 04:20:05;;;;;;;20.10;18.00;;;24.20;59.60;;;;;;5026612;28;20452;-50
2021/06/09 04:22:31;;;;;;;20.73;18.37;;;24.10;59.50;;;;;;5028273;28;20451;-48
2021/06/09 04:24:57;;;;;;;26.03;22.77;;;24.20;59.50;;;;;;5029238;28;20555;-48
2021/06/09 04:27:28;;;;;;;18.23;16.33;;;24.10;59.30;;;;;;5026157;28;20538;-52
2021/06/09 04:29:55;;;;;;;22.40;20.10;;;24.00;59.70;;;;;;5026905;28;20200;-50
2021/06/09 04:32:21;;;;;;;23.70;20.43;;;24.00;59.40;;;;;;5029141;28;20447;-51
2021/06/09 04:34:50;;;;;;;21.47;19.47;;;23.90;59.80;;;;;;5031009;28;20947;-48
2021/06/09 04:37:21;;;;;;;23.57;21.07;;;23.90;59.90;;;;;;5027692;28;20197;-47
2021/06/09 04:39:48;;;;;;;20.77;18.70;;;23.70;60.30;;;;;;5029283;28;20433;-52
2021/06/09 04:42:15;;;;;;;19.53;17.67;;;23.60;61.10;;;;;;5027667;28;20439;-48
2021/06/09 04:44:42;;;;;;;18.77;17.10;;;23.70;61.00;;;;;;5021113;28;20501;-52
2021/06/09 04:47:09;;;;;;;19.50;17.70;;;23.80;60.50;;;;;;5027758;28;20439;-48
2021/06/09 04:49:42;;;;;;;19.17;17.30;;;23.60;60.20;;;;;;5026143;28;20436;-48
2021/06/09 04:52:08;;;;;;;16.73;15.23;;;23.60;60.40;;;;;;5028424;28;20452;-49
2021/06/09 04:54:34;;;;;;;17.87;16.23;;;23.70;60.80;;;;;;5029379;28;20456;-48
2021/06/09 04:57:02;;;;;;;15.90;14.43;;;23.70;59.80;;;;;;5023993;28;20494;-47
2021/06/09 04:59:28;;;;;;;17.73;16.03;;;23.80;59.80;;;;;;5020674;28;20193;-51
2021/06/09 05:01:54;;;;;;;17.50;15.80;;;23.90;59.80;;;;;;5028147;28;20515;-49
2021/06/09 05:04:19;;;;;;;15.10;13.80;;;24.00;59.60;;;;;;5028968;28;20269;-49
2021/06/09 05:06:45;;;;;;;13.00;11.73;;;24.10;59.50;;;;;;5021569;28;20264;-48
2021/06/09 05:09:11;;;;;;;14.33;12.93;;;24.10;59.60;;;;;;5019370;28;20607;-50
2021/06/09 05:11:38;;;;;;;15.77;14.40;;;24.10;60.00;;;;;;5024337;28;20316;-48
2021/06/09 05:14:09;;;;;;;17.37;15.70;;;24.30;59.50;;;;;;5028957;28;21120;-51
2021/06/09 05:16:38;;;;;;;16.07;14.70;;;24.40;59.10;;;;;;5027179;28;21679;-48
2021/06/09 05:19:06;;;;;;;17.60;15.80;;;24.50;58.70;;;;;;5025143;28;20444;-52
2021/06/09 05:21:34;;;;;;;15.67;14.17;;;24.60;58.50;;;;;;5021418;28;20471;-50
2021/06/09 05:24:02;;;;;;;14.93;13.53;;;24.60;58.30;;;;;;5018371;28;20498;-49
2021/06/09 05:26:31;;;;;;;17.93;16.20;;;24.60;58.10;;;;;;5026255;28;20455;-48
2021/06/09 05:29:01;;;;;;;20.37;18.27;;;24.70;58.10;;;;;;5015295;28;20527;-52
2021/06/09 05:31:29;;;;;;;16.03;14.53;;;24.70;58.00;;;;;;5027638;28;20451;-50
2021/06/09 05:33:55;;;;;;;18.33;16.73;;;24.70;58.00;;;;;;5027494;28;20893;-49
2021/06/09 05:36:21;;;;;;;17.93;16.33;;;24.60;57.80;;;;;;5029576;28;20439;-48
2021/06/09 05:38:47;;;;;;;17.03;15.50;;;24.70;58.00;;;;;;5026974;28;20497;-52
2021/06/09 05:41:13;;;;;;;15.87;14.47;;;24.70;58.00;;;;;;5029745;28;20440;-48
2021/06/09 05:43:41;;;;;;;18.00;16.30;;;24.70;57.90;;;;;;5029952;28;20771;-47
2021/06/09 05:46:09;;;;;;;16.77;15.07;;;24.80;57.90;;;;;;5030994;28;20221;-47
2021/06/09 05:48:39;;;;;;;17.00;15.37;;;24.80;57.90;;;;;;5023791;28;20490;-52
2021/06/09 05:51:05;;;;;;;19.80;18.10;;;24.80;58.00;;;;;;5031079;28;20924;-47
2021/06/09 05:53:31;;;;;;;19.50;17.50;;;24.80;57.90;;;;;;5030491;28;20442;-49
2021/06/09 05:55:57;;;;;;;19.30;17.60;;;24.80;57.90;;;;;;5030945;28;20612;-48
2021/06/09 05:58:24;;;;;;;17.23;15.63;;;24.90;58.00;;;;;;5031078;28;20206;-48
2021/06/09 06:00:54;;;;;;;18.57;16.87;;;24.90;58.00;;;;;;5028182;28;20459;-48
2021/06/09 06:03:22;;;;;;;18.20;16.50;;;24.90;57.90;;;;;;5029136;28;21040;-51
2021/06/09 06:05:50;;;;;;;23.53;21.17;;;25.00;57.80;;;;;;5030049;28;20886;-48
2021/06/09 06:08:15;;;;;;;20.87;18.97;;;25.10;57.70;;;;;;5030067;28;20490;-48
2021/06/09 06:10:42;;;;;;;19.00;17.20;;;25.10;57.90;;;;;;5028084;28;20475;-47
2021/06/09 06:13:08;;;;;;;21.40;18.70;;;25.10;58.00;;;;;;5027146;28;20276;-52
2021/06/09 06:15:35;;;;;;;19.93;18.00;;;25.20;58.10;;;;;;5015390;28;20447;-48
2021/06/09 06:18:01;;;;;;;23.70;21.40;;;25.20;58.20;;;;;;5014047;28;20516;-47
2021/06/09 06:20:26;;;;;;;20.90;18.30;;;25.20;58.20;;;;;;5028316;28;20531;-49
2021/06/09 06:22:53;;;;;;;25.60;22.40;;;25.20;58.20;;;;;;5026690;28;20221;-48
2021/06/09 06:25:22;;;;;;;25.33;22.83;;;25.30;58.20;;;;;;5020816;28;20189;-48
2021/06/09 06:27:49;;;;;;;28.10;25.40;;;25.30;58.30;;;;;;5027373;28;20449;-47
2021/06/09 06:30:17;;;;;;;26.13;23.57;;;25.30;58.30;;;;;;5009602;28;20875;-49
2021/06/09 06:32:45;;;;;;;27.70;24.50;;;25.30;58.30;;;;;;5023086;28;20444;-48
2021/06/09 06:35:13;;;;;;;25.70;23.10;;;25.30;58.50;;;;;;5030183;28;20850;-53
2021/06/09 06:37:40;;;;;;;27.67;24.87;;;25.30;58.40;;;;;;5030736;28;20494;-52
2021/06/09 06:40:06;;;;;;;29.67;26.67;;;25.30;58.40;;;;;;5029281;28;20424;-52
2021/06/09 06:42:32;;;;;;;27.13;24.50;;;25.40;58.30;;;;;;5029497;28;20543;-52
2021/06/09 06:45:00;;;;;;;26.37;23.57;;;25.40;58.30;;;;;;5028455;28;20515;-52
2021/06/09 06:47:26;;;;;;;26.23;23.43;;;25.40;58.20;;;;;;5030100;28;20439;-52
2021/06/09 06:49:52;;;;;;;28.90;25.90;;;25.50;58.20;;;;;;5031262;28;20484;-50
2021/06/09 06:52:19;;;;;;;23.67;21.50;;;25.50;58.20;;;;;;5031754;28;20491;-51
2021/06/09 06:54:44;;;;;;;27.17;24.50;;;25.50;58.20;;;;;;5034567;28;20427;-52
2021/06/09 06:57:12;;;;;;;25.23;22.83;;;25.60;58.00;;;;;;5032059;28;20851;-51
2021/06/09 06:59:39;;;;;;;31.83;28.13;;;25.30;58.00;;;;;;5030651;28;20197;-52
2021/06/09 07:02:07;;;;;;;24.20;21.93;;;25.40;58.70;;;;;;5017208;28;20499;-51
2021/06/09 07:04:34;;;;;;;26.27;23.70;;;25.40;58.40;;;;;;5028391;28;20978;-48
2021/06/09 07:07:00;;;;;;;24.47;22.00;;;25.50;58.20;;;;;;5030880;28;20485;-51
2021/06/09 07:09:25;;;;;;;26.53;24.00;;;25.60;58.00;;;;;;5023616;28;20801;-52
2021/06/09 07:11:52;;;;;;;25.20;22.87;;;25.60;57.80;;;;;;5029302;28;20471;-52
2021/06/09 07:14:23;;;;;;;24.10;21.60;;;25.60;57.60;;;;;;5032329;28;20212;-50
2021/06/09 07:16:50;;;;;;;26.90;24.33;;;25.60;57.90;;;;;;5034465;28;20788;-51
2021/06/09 07:19:17;;;;;;;26.17;23.57;;;25.60;57.80;;;;;;5026258;28;20446;-49
2021/06/09 07:21:42;;;;;;;24.00;21.77;;;25.70;57.80;;;;;;5021936;28;21017;-51
2021/06/09 07:24:09;;;;;;;30.53;27.13;;;25.60;57.70;;;;;;5033148;28;20498;-48
2021/06/09 07:26:39;;;;;;;26.30;23.60;;;25.60;57.60;;;;;;5032380;28;20821;-48
2021/06/09 07:29:06;;;;;;;29.10;26.10;;;25.70;57.80;;;;;;5027287;28;20926;-52
2021/06/09 07:31:34;;;;;;;28.50;25.80;;;25.70;57.70;;;;;;5033672;28;20446;-48
2021/06/09 07:34:00;;;;;;;26.23;23.63;;;25.70;57.70;;;;;;5029881;28;20440;-48
2021/06/09 07:36:54;;;;;;;26.83;24.03;;;25.80;58.40;;;;;;5029357;28;20502;-49
2021/06/09 07:39:39;;;;;;;26.57;23.97;;;25.60;58.20;;;;;;5022565;28;20221;-47
2021/06/09 07:42:09;;;;;;;30.63;27.53;;;25.70;58.20;;;;;;5027722;28;21206;-50
2021/06/09 07:44:42;;;;;;;23.87;21.57;;;25.70;58.60;;;;;;5024272;28;20479;-50
2021/06/09 07:47:10;;;;;;;29.63;26.70;;;25.70;57.80;;;;;;5026722;28;20789;-51
2021/06/09 07:49:37;;;;;;;30.53;27.53;;;25.60;57.70;;;;;;5026153;28;20797;-51
2021/06/09 07:52:04;;;;;;;29.60;26.80;;;25.70;57.90;;;;;;5028800;28;20421;-48
2021/06/09 07:54:31;;;;;;;29.50;26.77;;;25.80;57.70;;;;;;5016777;28;20949;-51
2021/06/09 07:57:00;;;;;;;27.00;24.23;;;25.90;57.50;;;;;;5024667;28;20432;-49
2021/06/09 07:59:26;;;;;;;26.80;24.40;;;25.90;57.50;;;;;;5019532;28;20444;-49
2021/06/09 08:01:52;;;;;;;27.97;25.37;;;25.90;57.70;;;;;;5032128;28;20458;-52
2021/06/09 08:04:20;;;;;;;29.87;26.83;;;25.90;57.80;;;;;;5032774;28;20488;-51
2021/06/09 08:06:46;;;;;;;31.13;28.10;;;26.00;57.50;;;;;;5032635;28;20201;-51
2021/06/09 08:09:15;;;;;;;42.80;30.90;;;26.10;57.30;;;;;;5020169;28;20437;-49
2021/06/09 08:11:41;;;;;;;29.23;26.57;;;26.20;57.30;;;;;;5028302;28;20507;-48
2021/06/09 08:14:08;;;;;;;32.90;29.70;;;26.20;57.30;;;;;;5026389;28;20515;-47
2021/06/09 08:16:35;;;;;;;32.47;29.47;;;26.10;57.70;;;;;;5031410;28;20494;-48
2021/06/09 08:19:05;;;;;;;31.70;28.60;;;26.00;57.60;;;;;;5028815;28;20581;-49
2021/06/09 08:21:31;;;;;;;30.17;27.37;;;26.10;58.00;;;;;;5016966;28;20444;-48
2021/06/09 08:23:56;;;;;;;31.70;28.73;;;26.20;57.50;;;;;;5026565;28;20487;-49
2021/06/09 08:26:24;;;;;;;31.53;28.57;;;26.30;57.10;;;;;;5027539;28;20277;-53
2021/06/09 08:28:51;;;;;;;28.40;25.80;;;26.50;57.40;;;;;;5032189;28;20213;-48
2021/06/09 08:31:24;;;;;;;29.77;27.00;;;26.50;56.80;;;;;;5031298;28;20927;-49
2021/06/09 08:33:51;;;;;;;29.93;26.80;;;26.50;57.20;;;;;;5025414;28;21155;-49
2021/06/09 08:36:17;;;;;;;27.40;24.70;;;26.60;57.80;;;;;;5019495;28;20463;-49
2021/06/09 08:38:44;;;;;;;26.40;24.00;;;26.50;57.20;;;;;;5024983;28;20935;-49
2021/06/09 08:41:11;;;;;;;25.83;23.43;;;26.70;56.70;;;;;;5029744;28;20436;-48
2021/06/09 08:43:40;;;;;;;26.90;24.10;;;26.70;56.30;;;;;;5024634;28;20542;-49
2021/06/09 08:46:09;;;;;;;30.53;27.57;;;26.60;57.00;;;;;;5028138;28;20497;-50
2021/06/09 08:48:38;;;;;;;29.40;26.50;;;26.60;56.60;;;;;;5021225;28;20819;-48
2021/06/09 08:51:06;;;;;;;27.83;25.23;;;26.60;57.20;;;;;;5026910;28;20519;-49
2021/06/09 08:53:34;;;;;;;31.00;27.87;;;26.90;56.70;;;;;;5025904;28;20818;-48
2021/06/09 08:56:00;;;;;;;31.33;28.43;;;27.00;56.70;;;;;;5029232;28;20447;-48
2021/06/09 08:58:26;;;;;;;29.70;26.67;;;27.10;56.50;;;;;;5028302;28;20528;-49
2021/06/09 09:00:52;;;;;;;30.03;27.20;;;27.30;56.70;;;;;;5030027;28;20512;-48
2021/06/09 09:03:17;;;;;;;30.07;27.27;;;27.50;56.50;;;;;;5030538;28;20213;-49
2021/06/09 09:05:43;;;;;;;35.50;31.80;;;27.70;56.30;;;;;;5030541;28;20683;-49
2021/06/09 09:08:09;;;;;;;30.73;27.80;;;27.70;56.70;;;;;;5029253;28;20194;-48
2021/06/09 09:10:35;;;;;;;31.60;28.50;;;27.80;56.00;;;;;;5022453;28;20252;-48
2021/06/09 09:13:01;;;;;;;32.03;29.10;;;27.90;55.60;;;;;;5031355;28;20443;-48
2021/06/09 09:15:27;;;;;;;29.90;27.20;;;27.90;56.00;;;;;;5025396;28;20919;-49
2021/06/09 09:17:55;;;;;;;29.37;26.57;;;28.00;55.10;;;;;;5028302;28;20440;-48
2021/06/09 09:20:25;;;;;;;30.63;27.63;;;28.10;55.30;;;;;;5029462;28;20460;-49
2021/06/09 09:22:53;;;;;;;29.67;26.97;;;28.10;55.40;;;;;;5026801;28;20459;-48
2021/06/09 09:25:21;;;;;;;29.97;27.07;;;28.30;54.60;;;;;;5028767;28;20780;-48
2021/06/09 09:28:04;;;;;;;27.73;25.07;;;28.40;54.00;;;;;;5026692;28;20444;-47
2021/06/09 09:30:33;;;;;;;27.93;25.23;;;28.40;54.00;;;;;;5021646;28;20963;-53
2021/06/09 09:33:09;;;;;;;31.03;28.13;;;28.50;54.80;;;;;;5028361;28;20444;-52
2021/06/09 09:35:41;;;;;;;30.27;27.47;;;28.50;54.60;;;;;;5020534;28;20455;-51
2021/06/09 09:38:27;;;;;;;28.80;25.97;;;28.60;53.50;;;;;;5028908;28;20440;-53
2021/06/09 09:41:05;;;;;;;26.67;24.30;;;28.70;52.60;;;;;;5028066;28;20466;-53
2021/06/09 09:43:47;;;;;;;26.40;24.10;;;28.50;53.30;;;;;;5029663;28;20836;-52
2021/06/09 09:46:16;;;;;;;25.97;23.40;;;28.70;53.40;;;;;;5025034;28;20432;-52
2021/06/09 09:49:02;;;;;;;24.87;22.67;;;28.80;52.70;;;;;;5022715;28;20448;-51
2021/06/09 09:51:30;;;;;;;23.23;21.13;;;29.00;52.10;;;;;;5028807;28;20440;-50
2021/06/09 09:53:57;;;;;;;22.73;20.60;;;29.30;51.60;;;;;;5027906;28;20939;-52
2021/06/09 09:56:26;;;;;;;20.60;18.80;;;29.50;51.00;;;;;;5027350;28;20585;-53
2021/06/09 09:58:53;;;;;;;20.80;18.87;;;29.60;51.80;;;;;;5028626;28;20950;-49
2021/06/09 10:01:25;;;;;;;24.10;21.80;;;29.90;51.30;;;;;;5027944;28;20449;-52
2021/06/09 10:03:54;;;;;;;20.50;18.60;;;30.10;49.80;;;;;;5028621;28;20537;-52
2021/06/09 10:06:27;;;;;;;20.53;18.83;;;30.20;50.40;;;;;;5027787;28;20490;-52
2021/06/09 10:08:55;;;;;;;21.47;19.70;;;30.40;49.70;;;;;;5027755;28;20444;-51
2021/06/09 10:11:23;;;;;;;19.70;18.10;;;30.60;48.80;;;;;;5029367;28;20840;-51
2021/06/09 10:13:49;;;;;;;20.93;19.00;;;30.70;48.40;;;;;;5022848;28;21255;-52
2021/06/09 10:16:25;;;;;;;22.13;19.83;;;30.80;48.00;;;;;;5022594;28;20436;-51
2021/06/09 10:19:06;;;;;;;21.67;19.60;;;30.80;48.20;;;;;;5020732;28;20666;-52
2021/06/09 10:21:33;;;;;;;22.20;20.30;;;30.90;49.30;;;;;;5024592;28;21049;-51
2021/06/09 10:24:07;;;;;;;22.47;20.67;;;31.00;48.40;;;;;;5026106;28;20869;-52
2021/06/09 10:26:33;;;;;;;22.00;20.20;;;31.00;47.50;;;;;;5017731;28;20951;-50
2021/06/09 10:29:10;;;;;;;20.93;18.93;;;31.10;47.80;;;;;;5029596;28;20416;-51
2021/06/09 10:31:44;;;;;;;21.30;19.30;;;31.30;48.10;;;;;;5024623;28;20819;-49
2021/06/09 10:34:10;;;;;;;21.97;20.20;;;31.60;47.50;;;;;;5028434;28;20436;-50
2021/06/09 10:36:42;;;;;;;23.53;21.53;;;31.60;47.20;;;;;;5028002;28;20427;-52
2021/06/09 10:39:08;;;;;;;25.90;23.70;;;31.60;46.30;;;;;;5028159;28;20446;-51
2021/06/09 10:41:39;;;;;;;24.17;21.83;;;31.20;46.80;;;;;;5014787;28;20448;-49
2021/06/09 10:44:05;;;;;;;23.97;21.80;;;31.10;46.70;;;;;;5025474;28;20228;-48
2021/06/09 10:46:33;;;;;;;23.93;22.00;;;31.10;47.20;;;;;;5029233;28;20436;-53
2021/06/09 10:49:01;;;;;;;21.23;19.53;;;31.20;46.90;;;;;;5024033;28;20197;-48
2021/06/09 10:51:28;;;;;;;21.80;19.90;;;31.00;47.50;;;;;;5026462;28;20768;-52
2021/06/09 10:53:55;;;;;;;22.80;20.70;;;30.90;47.50;;;;;;5029786;28;20444;-48
2021/06/09 10:56:23;;;;;;;22.93;20.63;;;31.20;47.20;;;;;;5023902;28;20478;-52
2021/06/09 10:58:49;;;;;;;21.63;19.80;;;31.60;46.50;;;;;;5029152;28;20432;-52
2021/06/09 11:01:19;;;;;;;23.20;21.00;;;31.80;46.30;;;;;;5020166;28;20939;-51
2021/06/09 11:03:47;;;;;;;21.17;19.47;;;31.90;45.80;;;;;;5029866;28;20491;-48
2021/06/09 11:06:13;;;;;;;21.83;19.80;;;32.20;46.10;;;;;;5016194;28;20437;-52
2021/06/09 11:08:39;;;;;;;23.57;21.67;;;32.10;46.00;;;;;;5010059;28;20441;-52
2021/06/09 11:11:20;;;;;;;20.93;19.13;;;31.90;44.90;;;;;;5022841;28;20244;-52
2021/06/09 11:13:47;;;;;;;20.40;18.80;;;32.00;45.70;;;;;;5028639;28;20958;-48
2021/06/09 11:16:16;;;;;;;18.67;16.97;;;31.90;45.60;;;;;;5029309;28;20808;-52
2021/06/09 11:18:47;;;;;;;18.30;16.90;;;32.10;45.50;;;;;;5030112;28;20440;-52
2021/06/09 11:21:23;;;;;;;16.47;15.23;;;32.30;45.00;;;;;;5028907;28;20829;-49
2021/06/09 11:23:49;;;;;;;18.70;17.20;;;32.50;45.10;;;;;;5027726;28;20487;-52
2021/06/09 11:26:29;;;;;;;17.33;15.90;;;32.60;44.40;;;;;;5029931;28;20504;-48
2021/06/09 11:28:55;;;;;;;19.23;17.60;;;32.60;44.30;;;;;;5027624;28;20448;-52
2021/06/09 11:31:30;;;;;;;20.53;18.63;;;32.70;43.80;;;;;;5028804;28;20484;-50
2021/06/09 11:34:03;;;;;;;18.53;17.00;;;32.80;43.60;;;;;;5029878;28;20465;-49
2021/06/09 11:36:31;;;;;;;17.07;15.70;;;32.80;43.10;;;;;;5028342;28;20451;-51
2021/06/09 11:39:01;;;;;;;16.80;15.47;;;33.00;42.70;;;;;;5031036;28;20440;-52
2021/06/09 11:41:40;;;;;;;15.73;14.50;;;33.20;41.20;;;;;;5025534;28;20448;-49
2021/06/09 11:44:07;;;;;;;15.90;14.60;;;33.40;41.80;;;;;;5031040;28;20514;-48
2021/06/09 11:46:38;;;;;;;12.77;11.77;;;33.40;40.70;;;;;;5033520;28;20821;-49
2021/06/09 11:49:05;;;;;;;13.83;12.70;;;33.70;41.50;;;;;;5022019;28;20443;-50
2021/06/09 11:51:32;;;;;;;13.40;12.40;;;33.70;41.30;;;;;;5031725;28;20443;-50
2021/06/09 11:54:26;;;;;;;13.63;12.53;;;33.90;41.30;;;;;;5025852;28;20444;-49
2021/06/09 11:57:18;;;;;;;14.27;13.10;;;34.10;41.20;;;;;;5029406;28;20436;-48
2021/06/09 11:59:45;;;;;;;13.83;12.53;;;34.20;38.80;;;;;;5016077;28;20955;-49
2021/06/09 12:02:19;;;;;;;13.00;12.10;;;34.20;39.30;;;;;;5021194;28;20406;-52
2021/06/09 12:04:49;;;;;;;13.37;12.27;;;34.20;39.80;;;;;;5023068;28;20479;-51
2021/06/09 12:07:32;;;;;;;12.57;11.50;;;34.30;39.60;;;;;;5029565;28;20491;-48
2021/06/09 12:10:08;;;;;;;11.43;10.57;;;34.40;38.70;;;;;;5024975;28;20567;-48
2021/06/09 12:12:35;;;;;;;12.40;11.60;;;34.40;39.40;;;;;;5028798;28;20510;-49
2021/06/09 12:15:10;;;;;;;12.30;11.30;;;34.30;39.20;;;;;;5025799;28;20444;-51
2021/06/09 12:17:40;;;;;;;11.70;10.70;;;34.10;39.40;;;;;;5026046;28;20427;-52
2021/06/09 12:20:15;;;;;;;11.50;10.40;;;34.10;39.80;;;;;;5031494;28;20498;-50
2021/06/09 12:22:45;;;;;;;12.13;11.23;;;34.00;39.60;;;;;;5027642;28;20452;-52
2021/06/09 12:25:21;;;;;;;10.43;9.57;;;34.00;38.50;;;;;;5031480;28;20904;-55
2021/06/09 12:28:01;;;;;;;11.37;10.47;;;34.10;38.70;;;;;;5031655;28;20789;-54
2021/06/09 12:30:27;;;;;;;12.63;11.63;;;34.20;37.50;;;;;;5031587;28;20439;-55
2021/06/09 12:32:53;;;;;;;13.57;12.40;;;34.10;38.90;;;;;;5026896;28;20440;-56
2021/06/09 12:35:21;;;;;;;11.47;10.67;;;34.20;39.70;;;;;;5026753;28;20468;-55
2021/06/09 12:37:53;;;;;;;12.83;11.60;;;34.00;40.70;;;;;;5030216;28;20950;-55